Glace, West Virginia
Current Conditions -  °F | °C
As of 1:15 PM on Monday 22 Dec 2014 (Local Time) from KLWB Reporting Station
Overcast Overcast  
Wind Chill: 34°   Ceiling: 1000
Heat Index: 37°   Visibility: 7mi
Dew Point: 34°   Wind: 5mph
Humidity: 87%   Direction: 40°NE
Pressure: 30.04"   Gusts: NA
Location:  37.68°N, 80.34°W
Report Text: KLWB 221815Z AUTO 04004KT 7SM OVC010 03/01 A3004 RMK AO2 T00300011
Loading
Personal Weather Stations






























Interactive Weather Map New forecast layout! Learn more

10-Day Weather Forecast

Advertisements
Track Severe Weather on mobile